Etusivu
METAR-TAF:

METAR-TAF

Lentoasemat :

Mécheria, Algeria

Leveyspiiri: 34-56N, Pituuspiiri: 000-26W, korkeus merenpinnasta: 1149 m

Tämänhetkinen sää

Tämä raportti tehtiin 54 minuuttia sitten, kello 07.00 UTC
tyyntä
Lämpötila 25°C
Kosteus 22%
Ilmanpaine 1025 hPa
Näkyvyys 10 km tai enemmän
ei pilviä alle 1500 m:ssä eikä cumulonimbus-pilviä

METAR: DAAY 090700Z 00000KT CAVOK 25/02 Q1025

Aika: 08:54 (07:54 UTC)

Sääennuste

Tämä raportti tehtiin 2 tuntia ja 54 minuuttia sitten, kello 05.00 UTC
Ennuste voimassa 09. päivästä klo 06 UTC - 09. päivään klo 15 UTC
Tuuli 2 kn eri suunnista
Näkyvyys 10 km tai enemmän
ei pilviä alle 1500 m:ssä eikä cumulonimbus-pilviä
Tulossa
09. päivästä klo 08 UTC - 09. päivään klo 10 UTC
Tuuli 12 kn kaakosta

TAF: DAAY 090500Z 0906/0915 VRB02KT CAVOK BECMG 0908/0910 13012KT

Säähavainnot ja -ennusteet yli 4000 lentoasemalta (METAR- ja TAF-raportit).

Käytössä olevat sääasemat on merkitty karttaan keltaisilla ja punaisilla pisteillä.

Aseta hiiri pisteen päälle nähdäksesi sääaseman nimen.

Klikkaa sitten nähdäksesi säähavainnot ja -ennusteet.

Kartan vaihtaminen: klikkaa mustalla rastilla varustettuja vihreitä pisteitä, niin voit zoomata sisään; viivalla varustettua vihreää pistettä, niin voit zoomata ulos tai vihreitä nuolia, niin pääset viereisille kartoille.


METAR-TAF: